sensor_id;sensor_type;location;lat;lon;timestamp;P1;durP1;ratioP1;P2;durP2;ratioP2
16878;SDS011;8556;52.218;9.884;2022-09-12T00:01:15;19.83;;;11.33;;
16878;SDS011;8556;52.218;9.884;2022-09-12T00:03:45;17.30;;;11.03;;
16878;SDS011;8556;52.218;9.884;2022-09-12T00:06:15;15.87;;;10.43;;
16878;SDS011;8556;52.218;9.884;2022-09-12T00:08:45;19.23;;;10.67;;
16878;SDS011;8556;52.218;9.884;2022-09-12T00:11:12;18.23;;;11.23;;
16878;SDS011;8556;52.218;9.884;2022-09-12T00:13:39;20.10;;;10.70;;
16878;SDS011;8556;52.218;9.884;2022-09-12T00:16:12;16.90;;;10.73;;
16878;SDS011;8556;52.218;9.884;2022-09-12T00:18:41;15.97;;;10.70;;
16878;SDS011;8556;52.218;9.884;2022-09-12T00:21:10;18.70;;;10.00;;
16878;SDS011;8556;52.218;9.884;2022-09-12T00:23:38;18.03;;;9.80;;
16878;SDS011;8556;52.218;9.884;2022-09-12T00:26:06;16.27;;;10.80;;
16878;SDS011;8556;52.218;9.884;2022-09-12T00:28:34;17.77;;;10.03;;
16878;SDS011;8556;52.218;9.884;2022-09-12T00:31:03;15.50;;;9.77;;
16878;SDS011;8556;52.218;9.884;2022-09-12T00:33:32;16.30;;;10.77;;
16878;SDS011;8556;52.218;9.884;2022-09-12T00:36:02;17.43;;;10.23;;
16878;SDS011;8556;52.218;9.884;2022-09-12T00:38:30;17.50;;;10.07;;
16878;SDS011;8556;52.218;9.884;2022-09-12T00:40:57;17.57;;;9.83;;
16878;SDS011;8556;52.218;9.884;2022-09-12T00:43:37;15.63;;;10.27;;
16878;SDS011;8556;52.218;9.884;2022-09-12T00:46:06;16.10;;;9.73;;
16878;SDS011;8556;52.218;9.884;2022-09-12T00:48:42;17.67;;;9.40;;
16878;SDS011;8556;52.218;9.884;2022-09-12T00:51:13;15.13;;;9.73;;
16878;SDS011;8556;52.218;9.884;2022-09-12T00:53:41;15.67;;;9.67;;
16878;SDS011;8556;52.218;9.884;2022-09-12T00:56:11;14.60;;;9.40;;
16878;SDS011;8556;52.218;9.884;2022-09-12T00:58:42;15.97;;;9.60;;
16878;SDS011;8556;52.218;9.884;2022-09-12T01:01:13;19.43;;;10.60;;
16878;SDS011;8556;52.218;9.884;2022-09-12T01:03:40;16.03;;;10.63;;
16878;SDS011;8556;52.218;9.884;2022-09-12T01:06:09;15.50;;;9.87;;
16878;SDS011;8556;52.218;9.884;2022-09-12T01:08:40;17.43;;;10.57;;
16878;SDS011;8556;52.218;9.884;2022-09-12T01:11:09;16.23;;;9.43;;
16878;SDS011;8556;52.218;9.884;2022-09-12T01:13:38;15.43;;;9.67;;
16878;SDS011;8556;52.218;9.884;2022-09-12T01:16:07;15.73;;;9.03;;
16878;SDS011;8556;52.218;9.884;2022-09-12T01:18:37;14.00;;;8.60;;
16878;SDS011;8556;52.218;9.884;2022-09-12T01:21:13;16.30;;;9.93;;
16878;SDS011;8556;52.218;9.884;2022-09-12T01:23:52;13.47;;;9.00;;
16878;SDS011;8556;52.218;9.884;2022-09-12T01:26:50;15.43;;;9.10;;
16878;SDS011;8556;52.218;9.884;2022-09-12T01:33:05;15.13;;;9.53;;
16878;SDS011;8556;52.218;9.884;2022-09-12T01:35:56;14.07;;;9.50;;
16878;SDS011;8556;52.218;9.884;2022-09-12T01:38:42;17.47;;;9.37;;
16878;SDS011;8556;52.218;9.884;2022-09-12T01:41:13;15.73;;;9.60;;
16878;SDS011;8556;52.218;9.884;2022-09-12T01:43:50;14.10;;;10.10;;
16878;SDS011;8556;52.218;9.884;2022-09-12T01:46:26;15.77;;;9.60;;
16878;SDS011;8556;52.218;9.884;2022-09-12T01:48:59;15.07;;;9.47;;
16878;SDS011;8556;52.218;9.884;2022-09-12T01:51:33;17.00;;;10.23;;
16878;SDS011;8556;52.218;9.884;2022-09-12T01:54:04;17.23;;;9.93;;
16878;SDS011;8556;52.218;9.884;2022-09-12T01:56:35;12.63;;;8.63;;
16878;SDS011;8556;52.218;9.884;2022-09-12T01:59:07;13.73;;;8.77;;
16878;SDS011;8556;52.218;9.884;2022-09-12T02:01:38;20.30;;;9.93;;
16878;SDS011;8556;52.218;9.884;2022-09-12T02:04:12;14.27;;;8.70;;
16878;SDS011;8556;52.218;9.884;2022-09-12T02:06:42;15.37;;;9.47;;
16878;SDS011;8556;52.218;9.884;2022-09-12T02:09:14;16.97;;;9.67;;
16878;SDS011;8556;52.218;9.884;2022-09-12T02:11:45;15.37;;;9.37;;
16878;SDS011;8556;52.218;9.884;2022-09-12T02:14:16;13.90;;;8.43;;
16878;SDS011;8556;52.218;9.884;2022-09-12T02:16:47;14.27;;;8.67;;
16878;SDS011;8556;52.218;9.884;2022-09-12T02:19:22;14.73;;;8.83;;
16878;SDS011;8556;52.218;9.884;2022-09-12T02:21:52;13.50;;;8.90;;
16878;SDS011;8556;52.218;9.884;2022-09-12T02:24:22;14.63;;;8.63;;
16878;SDS011;8556;52.218;9.884;2022-09-12T02:26:56;11.20;;;7.20;;
16878;SDS011;8556;52.218;9.884;2022-09-12T02:29:26;11.37;;;7.83;;
16878;SDS011;8556;52.218;9.884;2022-09-12T02:31:55;13.37;;;8.07;;
16878;SDS011;8556;52.218;9.884;2022-09-12T02:34:33;15.37;;;8.60;;
16878;SDS011;8556;52.218;9.884;2022-09-12T02:37:10;11.43;;;7.90;;
16878;SDS011;8556;52.218;9.884;2022-09-12T02:39:45;12.20;;;7.93;;
16878;SDS011;8556;52.218;9.884;2022-09-12T02:42:12;11.57;;;7.63;;
16878;SDS011;8556;52.218;9.884;2022-09-12T02:44:39;12.53;;;8.73;;
16878;SDS011;8556;52.218;9.884;2022-09-12T02:47:07;13.93;;;8.60;;
16878;SDS011;8556;52.218;9.884;2022-09-12T02:49:39;16.90;;;9.60;;
16878;SDS011;8556;52.218;9.884;2022-09-12T02:52:06;14.87;;;9.20;;
16878;SDS011;8556;52.218;9.884;2022-09-12T02:54:33;16.50;;;9.13;;
16878;SDS011;8556;52.218;9.884;2022-09-12T02:57:02;12.53;;;8.80;;
16878;SDS011;8556;52.218;9.884;2022-09-12T02:59:31;15.40;;;9.47;;
16878;SDS011;8556;52.218;9.884;2022-09-12T03:02:11;18.83;;;9.93;;
16878;SDS011;8556;52.218;9.884;2022-09-12T03:04:55;13.80;;;9.53;;
16878;SDS011;8556;52.218;9.884;2022-09-12T03:07:49;13.70;;;8.63;;
16878;SDS011;8556;52.218;9.884;2022-09-12T03:10:29;10.87;;;8.10;;
16878;SDS011;8556;52.218;9.884;2022-09-12T03:13:07;15.73;;;9.73;;
16878;SDS011;8556;52.218;9.884;2022-09-12T03:15:45;10.97;;;7.50;;
16878;SDS011;8556;52.218;9.884;2022-09-12T03:18:22;14.00;;;8.70;;
16878;SDS011;8556;52.218;9.884;2022-09-12T03:21:03;14.77;;;9.43;;
16878;SDS011;8556;52.218;9.884;2022-09-12T03:23:37;16.20;;;9.03;;
16878;SDS011;8556;52.218;9.884;2022-09-12T03:26:11;13.23;;;9.90;;
16878;SDS011;8556;52.218;9.884;2022-09-12T03:28:42;15.83;;;9.77;;
16878;SDS011;8556;52.218;9.884;2022-09-12T03:31:11;18.00;;;10.47;;
16878;SDS011;8556;52.218;9.884;2022-09-12T03:33:39;18.20;;;12.57;;
16878;SDS011;8556;52.218;9.884;2022-09-12T03:36:09;14.30;;;9.50;;
16878;SDS011;8556;52.218;9.884;2022-09-12T03:38:40;16.93;;;9.43;;
16878;SDS011;8556;52.218;9.884;2022-09-12T03:41:07;16.70;;;10.27;;
16878;SDS011;8556;52.218;9.884;2022-09-12T03:43:35;15.90;;;10.53;;
16878;SDS011;8556;52.218;9.884;2022-09-12T03:46:02;14.93;;;9.37;;
16878;SDS011;8556;52.218;9.884;2022-09-12T03:48:29;16.67;;;10.63;;
16878;SDS011;8556;52.218;9.884;2022-09-12T03:50:58;15.80;;;10.53;;
16878;SDS011;8556;52.218;9.884;2022-09-12T03:53:27;15.30;;;9.60;;
16878;SDS011;8556;52.218;9.884;2022-09-12T03:55:54;14.80;;;10.23;;
16878;SDS011;8556;52.218;9.884;2022-09-12T03:58:22;16.33;;;9.47;;
16878;SDS011;8556;52.218;9.884;2022-09-12T04:00:49;15.97;;;9.83;;
16878;SDS011;8556;52.218;9.884;2022-09-12T04:03:16;15.30;;;10.20;;
16878;SDS011;8556;52.218;9.884;2022-09-12T04:05:44;16.00;;;10.13;;
16878;SDS011;8556;52.218;9.884;2022-09-12T04:08:11;19.43;;;11.00;;
16878;SDS011;8556;52.218;9.884;2022-09-12T04:10:41;18.10;;;10.00;;
16878;SDS011;8556;52.218;9.884;2022-09-12T04:13:08;15.90;;;9.50;;
16878;SDS011;8556;52.218;9.884;2022-09-12T04:15:35;15.33;;;10.23;;
16878;SDS011;8556;52.218;9.884;2022-09-12T04:18:02;17.57;;;12.10;;
16878;SDS011;8556;52.218;9.884;2022-09-12T04:20:29;15.77;;;10.20;;
16878;SDS011;8556;52.218;9.884;2022-09-12T04:22:56;14.57;;;9.57;;
16878;SDS011;8556;52.218;9.884;2022-09-12T04:25:23;16.13;;;9.87;;
16878;SDS011;8556;52.218;9.884;2022-09-12T04:27:52;16.77;;;10.90;;
16878;SDS011;8556;52.218;9.884;2022-09-12T04:30:19;18.83;;;12.90;;
16878;SDS011;8556;52.218;9.884;2022-09-12T04:32:46;17.67;;;11.47;;
16878;SDS011;8556;52.218;9.884;2022-09-12T04:35:13;16.23;;;10.77;;
16878;SDS011;8556;52.218;9.884;2022-09-12T04:37:40;18.47;;;10.30;;
16878;SDS011;8556;52.218;9.884;2022-09-12T04:40:07;15.40;;;10.30;;
16878;SDS011;8556;52.218;9.884;2022-09-12T04:42:35;18.30;;;10.37;;
16878;SDS011;8556;52.218;9.884;2022-09-12T04:45:03;18.13;;;10.57;;
16878;SDS011;8556;52.218;9.884;2022-09-12T04:47:31;15.10;;;9.97;;
16878;SDS011;8556;52.218;9.884;2022-09-12T04:49:58;19.47;;;12.10;;
16878;SDS011;8556;52.218;9.884;2022-09-12T04:52:25;16.63;;;10.60;;
16878;SDS011;8556;52.218;9.884;2022-09-12T04:54:52;13.87;;;9.27;;
16878;SDS011;8556;52.218;9.884;2022-09-12T04:57:19;16.60;;;9.83;;
16878;SDS011;8556;52.218;9.884;2022-09-12T04:59:46;14.87;;;8.90;;
16878;SDS011;8556;52.218;9.884;2022-09-12T05:02:15;15.60;;;9.30;;
16878;SDS011;8556;52.218;9.884;2022-09-12T05:04:42;16.10;;;9.73;;
16878;SDS011;8556;52.218;9.884;2022-09-12T05:07:11;14.23;;;9.00;;
16878;SDS011;8556;52.218;9.884;2022-09-12T05:09:38;15.93;;;9.73;;
16878;SDS011;8556;52.218;9.884;2022-09-12T05:12:05;12.80;;;8.97;;
16878;SDS011;8556;52.218;9.884;2022-09-12T05:14:33;15.53;;;9.40;;
16878;SDS011;8556;52.218;9.884;2022-09-12T05:17:00;16.10;;;10.00;;
16878;SDS011;8556;52.218;9.884;2022-09-12T05:19:31;17.07;;;9.23;;
16878;SDS011;8556;52.218;9.884;2022-09-12T05:21:58;14.33;;;9.80;;
16878;SDS011;8556;52.218;9.884;2022-09-12T05:24:25;14.93;;;9.83;;
16878;SDS011;8556;52.218;9.884;2022-09-12T05:26:52;14.53;;;9.27;;
16878;SDS011;8556;52.218;9.884;2022-09-12T05:29:19;13.60;;;9.17;;
16878;SDS011;8556;52.218;9.884;2022-09-12T05:31:46;14.23;;;8.90;;
16878;SDS011;8556;52.218;9.884;2022-09-12T05:34:14;14.87;;;9.17;;
16878;SDS011;8556;52.218;9.884;2022-09-12T05:36:42;13.63;;;8.60;;
16878;SDS011;8556;52.218;9.884;2022-09-12T05:39:09;14.47;;;9.43;;
16878;SDS011;8556;52.218;9.884;2022-09-12T05:41:36;17.00;;;8.90;;
16878;SDS011;8556;52.218;9.884;2022-09-12T05:44:05;15.03;;;9.00;;
16878;SDS011;8556;52.218;9.884;2022-09-12T05:46:36;14.23;;;9.00;;
16878;SDS011;8556;52.218;9.884;2022-09-12T05:49:05;13.87;;;8.93;;
16878;SDS011;8556;52.218;9.884;2022-09-12T05:51:34;14.50;;;8.87;;
16878;SDS011;8556;52.218;9.884;2022-09-12T05:54:05;13.90;;;8.57;;
16878;SDS011;8556;52.218;9.884;2022-09-12T05:56:36;14.87;;;8.93;;
16878;SDS011;8556;52.218;9.884;2022-09-12T05:59:04;14.67;;;8.83;;
16878;SDS011;8556;52.218;9.884;2022-09-12T06:01:33;15.50;;;8.70;;
16878;SDS011;8556;52.218;9.884;2022-09-12T06:04:02;13.47;;;8.40;;
16878;SDS011;8556;52.218;9.884;2022-09-12T06:06:31;13.23;;;8.23;;
16878;SDS011;8556;52.218;9.884;2022-09-12T06:09:00;13.07;;;8.50;;
16878;SDS011;8556;52.218;9.884;2022-09-12T06:11:31;13.63;;;8.63;;
16878;SDS011;8556;52.218;9.884;2022-09-12T06:14:01;12.70;;;8.87;;
16878;SDS011;8556;52.218;9.884;2022-09-12T06:16:29;13.80;;;8.93;;
16878;SDS011;8556;52.218;9.884;2022-09-12T06:18:58;14.13;;;8.87;;
16878;SDS011;8556;52.218;9.884;2022-09-12T06:21:27;14.20;;;8.23;;
16878;SDS011;8556;52.218;9.884;2022-09-12T06:23:55;12.57;;;8.57;;
16878;SDS011;8556;52.218;9.884;2022-09-12T06:26:23;13.97;;;9.00;;
16878;SDS011;8556;52.218;9.884;2022-09-12T06:28:53;15.10;;;9.27;;
16878;SDS011;8556;52.218;9.884;2022-09-12T06:31:24;12.57;;;9.00;;
16878;SDS011;8556;52.218;9.884;2022-09-12T06:33:53;14.67;;;8.53;;
16878;SDS011;8556;52.218;9.884;2022-09-12T06:36:21;15.17;;;9.80;;
16878;SDS011;8556;52.218;9.884;2022-09-12T06:38:52;13.07;;;8.53;;
16878;SDS011;8556;52.218;9.884;2022-09-12T06:41:21;16.03;;;9.43;;
16878;SDS011;8556;52.218;9.884;2022-09-12T06:43:49;12.83;;;8.50;;
16878;SDS011;8556;52.218;9.884;2022-09-12T06:46:17;11.93;;;8.40;;
16878;SDS011;8556;52.218;9.884;2022-09-12T06:48:44;14.52;;;9.30;;
16878;SDS011;8556;52.218;9.884;2022-09-12T06:51:12;14.37;;;9.23;;
16878;SDS011;8556;52.218;9.884;2022-09-12T06:53:41;14.57;;;9.43;;
16878;SDS011;8556;52.218;9.884;2022-09-12T06:56:09;14.23;;;9.33;;
16878;SDS011;8556;52.218;9.884;2022-09-12T06:58:37;13.03;;;9.00;;
16878;SDS011;8556;52.218;9.884;2022-09-12T07:01:05;16.73;;;9.73;;
16878;SDS011;8556;52.218;9.884;2022-09-12T07:03:35;16.20;;;9.73;;
16878;SDS011;8556;52.218;9.884;2022-09-12T07:06:03;26.25;;;22.00;;
16878;SDS011;8556;52.218;9.884;2022-09-12T07:08:31;21.52;;;17.02;;
16878;SDS011;8556;52.218;9.884;2022-09-12T07:10:58;26.80;;;23.63;;
16878;SDS011;8556;52.218;9.884;2022-09-12T07:13:32;22.70;;;17.07;;
16878;SDS011;8556;52.218;9.884;2022-09-12T07:16:00;19.33;;;12.73;;
16878;SDS011;8556;52.218;9.884;2022-09-12T07:18:27;15.55;;;9.40;;
16878;SDS011;8556;52.218;9.884;2022-09-12T07:20:56;16.00;;;9.73;;
16878;SDS011;8556;52.218;9.884;2022-09-12T07:23:25;15.38;;;9.13;;
16878;SDS011;8556;52.218;9.884;2022-09-12T07:25:52;17.05;;;10.60;;
16878;SDS011;8556;52.218;9.884;2022-09-12T07:28:21;16.98;;;10.73;;
16878;SDS011;8556;52.218;9.884;2022-09-12T07:30:48;17.50;;;12.02;;
16878;SDS011;8556;52.218;9.884;2022-09-12T07:33:17;16.88;;;11.65;;
16878;SDS011;8556;52.218;9.884;2022-09-12T07:35:44;18.25;;;10.75;;
16878;SDS011;8556;52.218;9.884;2022-09-12T07:38:13;15.18;;;10.73;;
16878;SDS011;8556;52.218;9.884;2022-09-12T07:40:40;17.10;;;11.30;;
16878;SDS011;8556;52.218;9.884;2022-09-12T07:43:07;17.38;;;11.68;;
16878;SDS011;8556;52.218;9.884;2022-09-12T07:45:34;14.35;;;11.13;;
16878;SDS011;8556;52.218;9.884;2022-09-12T07:48:01;19.02;;;11.70;;
16878;SDS011;8556;52.218;9.884;2022-09-12T07:50:28;16.48;;;10.60;;
16878;SDS011;8556;52.218;9.884;2022-09-12T07:52:55;18.42;;;11.73;;
16878;SDS011;8556;52.218;9.884;2022-09-12T07:55:23;18.35;;;11.38;;
16878;SDS011;8556;52.218;9.884;2022-09-12T07:57:50;18.75;;;11.32;;
16878;SDS011;8556;52.218;9.884;2022-09-12T08:00:17;16.48;;;11.90;;
16878;SDS011;8556;52.218;9.884;2022-09-12T08:02:44;18.20;;;11.65;;
16878;SDS011;8556;52.218;9.884;2022-09-12T08:05:16;19.38;;;11.30;;
16878;SDS011;8556;52.218;9.884;2022-09-12T08:07:44;17.00;;;11.20;;
16878;SDS011;8556;52.218;9.884;2022-09-12T08:10:11;16.25;;;11.15;;
16878;SDS011;8556;52.218;9.884;2022-09-12T08:12:40;17.10;;;10.98;;
16878;SDS011;8556;52.218;9.884;2022-09-12T08:15:07;17.35;;;11.82;;
16878;SDS011;8556;52.218;9.884;2022-09-12T08:17:34;17.77;;;11.57;;
16878;SDS011;8556;52.218;9.884;2022-09-12T08:20:01;16.33;;;11.25;;
16878;SDS011;8556;52.218;9.884;2022-09-12T08:22:29;17.35;;;11.77;;
16878;SDS011;8556;52.218;9.884;2022-09-12T08:24:56;18.17;;;11.35;;
16878;SDS011;8556;52.218;9.884;2022-09-12T08:27:23;18.55;;;11.73;;
16878;SDS011;8556;52.218;9.884;2022-09-12T08:29:51;17.17;;;11.13;;
16878;SDS011;8556;52.218;9.884;2022-09-12T08:32:19;16.60;;;10.90;;
16878;SDS011;8556;52.218;9.884;2022-09-12T08:34:46;18.25;;;11.00;;
16878;SDS011;8556;52.218;9.884;2022-09-12T08:37:13;15.35;;;10.45;;
16878;SDS011;8556;52.218;9.884;2022-09-12T08:39:40;16.52;;;11.00;;
16878;SDS011;8556;52.218;9.884;2022-09-12T08:42:08;15.55;;;10.23;;
16878;SDS011;8556;52.218;9.884;2022-09-12T08:44:59;15.77;;;10.68;;
16878;SDS011;8556;52.218;9.884;2022-09-12T08:47:36;14.60;;;9.80;;
16878;SDS011;8556;52.218;9.884;2022-09-12T08:50:09;11.93;;;8.30;;
16878;SDS011;8556;52.218;9.884;2022-09-12T08:52:42;13.80;;;7.88;;
16878;SDS011;8556;52.218;9.884;2022-09-12T08:55:22;12.00;;;7.70;;
16878;SDS011;8556;52.218;9.884;2022-09-12T08:57:52;14.18;;;9.95;;
16878;SDS011;8556;52.218;9.884;2022-09-12T09:00:21;12.75;;;7.50;;
16878;SDS011;8556;52.218;9.884;2022-09-12T09:02:58;10.77;;;7.65;;
16878;SDS011;8556;52.218;9.884;2022-09-12T09:05:41;10.65;;;7.43;;
16878;SDS011;8556;52.218;9.884;2022-09-12T09:08:19;13.43;;;7.72;;
16878;SDS011;8556;52.218;9.884;2022-09-12T09:11:08;11.02;;;8.02;;
16878;SDS011;8556;52.218;9.884;2022-09-12T09:13:48;13.85;;;8.88;;
16878;SDS011;8556;52.218;9.884;2022-09-12T09:16:40;12.80;;;8.23;;
16878;SDS011;8556;52.218;9.884;2022-09-12T09:19:10;12.02;;;7.85;;
16878;SDS011;8556;52.218;9.884;2022-09-12T09:21:43;9.35;;;7.03;;
16878;SDS011;8556;52.218;9.884;2022-09-12T09:24:16;7.57;;;5.65;;
16878;SDS011;8556;52.218;9.884;2022-09-12T09:26:48;9.35;;;6.15;;
16878;SDS011;8556;52.218;9.884;2022-09-12T09:29:22;7.25;;;5.35;;
16878;SDS011;8556;52.218;9.884;2022-09-12T09:31:53;6.38;;;4.90;;
16878;SDS011;8556;52.218;9.884;2022-09-12T09:34:24;9.20;;;4.85;;
16878;SDS011;8556;52.218;9.884;2022-09-12T09:36:56;6.75;;;4.75;;
16878;SDS011;8556;52.218;9.884;2022-09-12T09:39:39;8.77;;;4.82;;
16878;SDS011;8556;52.218;9.884;2022-09-12T09:42:17;9.20;;;5.20;;
16878;SDS011;8556;52.218;9.884;2022-09-12T09:44:53;7.53;;;4.70;;
16878;SDS011;8556;52.218;9.884;2022-09-12T09:47:25;7.00;;;4.30;;
16878;SDS011;8556;52.218;9.884;2022-09-12T09:49:52;4.93;;;4.13;;
16878;SDS011;8556;52.218;9.884;2022-09-12T09:52:20;5.82;;;4.07;;
16878;SDS011;8556;52.218;9.884;2022-09-12T09:54:52;6.10;;;4.38;;
16878;SDS011;8556;52.218;9.884;2022-09-12T09:57:39;4.45;;;3.90;;
16878;SDS011;8556;52.218;9.884;2022-09-12T10:00:19;4.97;;;4.03;;
16878;SDS011;8556;52.218;9.884;2022-09-12T10:03:06;7.28;;;3.88;;
16878;SDS011;8556;52.218;9.884;2022-09-12T10:05:50;4.13;;;3.75;;
16878;SDS011;8556;52.218;9.884;2022-09-12T10:08:20;3.58;;;3.25;;
16878;SDS011;8556;52.218;9.884;2022-09-12T10:10:52;4.18;;;2.90;;
16878;SDS011;8556;52.218;9.884;2022-09-12T10:13:26;4.45;;;3.40;;
16878;SDS011;8556;52.218;9.884;2022-09-12T10:15:58;4.60;;;3.35;;
16878;SDS011;8556;52.218;9.884;2022-09-12T10:18:38;3.83;;;3.30;;
16878;SDS011;8556;52.218;9.884;2022-09-12T10:21:13;5.22;;;3.08;;
16878;SDS011;8556;52.218;9.884;2022-09-12T10:23:42;3.20;;;2.90;;
16878;SDS011;8556;52.218;9.884;2022-09-12T10:26:11;4.47;;;3.10;;
16878;SDS011;8556;52.218;9.884;2022-09-12T10:28:40;3.40;;;3.10;;
16878;SDS011;8556;52.218;9.884;2022-09-12T10:31:15;2.63;;;2.40;;
16878;SDS011;8556;52.218;9.884;2022-09-12T10:33:54;3.95;;;3.22;;
16878;SDS011;8556;52.218;9.884;2022-09-12T10:36:22;3.28;;;2.95;;
16878;SDS011;8556;52.218;9.884;2022-09-12T10:38:51;6.72;;;3.17;;
16878;SDS011;8556;52.218;9.884;2022-09-12T10:41:18;6.25;;;2.80;;
16878;SDS011;8556;52.218;9.884;2022-09-12T10:43:46;4.07;;;2.70;;
16878;SDS011;8556;52.218;9.884;2022-09-12T10:46:21;3.38;;;3.00;;
16878;SDS011;8556;52.218;9.884;2022-09-12T10:51:44;3.05;;;2.80;;
16878;SDS011;8556;52.218;9.884;2022-09-12T10:54:11;3.00;;;2.80;;
16878;SDS011;8556;52.218;9.884;2022-09-12T10:56:42;2.55;;;2.38;;
16878;SDS011;8556;52.218;9.884;2022-09-12T10:59:21;2.60;;;2.40;;
16878;SDS011;8556;52.218;9.884;2022-09-12T11:01:57;2.72;;;2.53;;
16878;SDS011;8556;52.218;9.884;2022-09-12T11:04:30;3.30;;;2.70;;
16878;SDS011;8556;52.218;9.884;2022-09-12T11:07:14;4.50;;;3.10;;
16878;SDS011;8556;52.218;9.884;2022-09-12T11:09:58;3.60;;;3.05;;
16878;SDS011;8556;52.218;9.884;2022-09-12T11:12:34;3.28;;;2.72;;
16878;SDS011;8556;52.218;9.884;2022-09-12T11:15:12;2.45;;;2.25;;
16878;SDS011;8556;52.218;9.884;2022-09-12T11:17:53;2.47;;;2.28;;
16878;SDS011;8556;52.218;9.884;2022-09-12T11:20:34;2.17;;;1.98;;
16878;SDS011;8556;52.218;9.884;2022-09-12T11:26:30;1.77;;;1.67;;
16878;SDS011;8556;52.218;9.884;2022-09-12T11:29:11;2.55;;;2.35;;
16878;SDS011;8556;52.218;9.884;2022-09-12T11:31:52;3.17;;;2.88;;
16878;SDS011;8556;52.218;9.884;2022-09-12T11:34:38;3.67;;;2.72;;
16878;SDS011;8556;52.218;9.884;2022-09-12T11:37:26;3.97;;;2.88;;
16878;SDS011;8556;52.218;9.884;2022-09-12T11:40:01;2.42;;;2.22;;
16878;SDS011;8556;52.218;9.884;2022-09-12T11:42:36;3.42;;;2.42;;
16878;SDS011;8556;52.218;9.884;2022-09-12T11:45:08;2.20;;;2.05;;
16878;SDS011;8556;52.218;9.884;2022-09-12T11:47:40;4.13;;;2.78;;
16878;SDS011;8556;52.218;9.884;2022-09-12T11:50:15;3.35;;;2.10;;
16878;SDS011;8556;52.218;9.884;2022-09-12T11:52:48;3.30;;;2.30;;
16878;SDS011;8556;52.218;9.884;2022-09-12T11:55:18;2.60;;;2.40;;
16878;SDS011;8556;52.218;9.884;2022-09-12T11:57:49;2.30;;;2.10;;
16878;SDS011;8556;52.218;9.884;2022-09-12T12:00:20;3.95;;;2.10;;
16878;SDS011;8556;52.218;9.884;2022-09-12T12:02:50;2.92;;;2.03;;
16878;SDS011;8556;52.218;9.884;2022-09-12T12:05:24;2.28;;;2.00;;
16878;SDS011;8556;52.218;9.884;2022-09-12T12:07:56;2.47;;;2.28;;
16878;SDS011;8556;52.218;9.884;2022-09-12T12:10:26;2.38;;;1.92;;
16878;SDS011;8556;52.218;9.884;2022-09-12T12:13:01;1.92;;;1.83;;
16878;SDS011;8556;52.218;9.884;2022-09-12T12:15:31;3.67;;;2.30;;
16878;SDS011;8556;52.218;9.884;2022-09-12T12:18:01;2.00;;;1.90;;
16878;SDS011;8556;52.218;9.884;2022-09-12T12:20:30;3.40;;;1.95;;
16878;SDS011;8556;52.218;9.884;2022-09-12T12:22:58;1.92;;;1.83;;
16878;SDS011;8556;52.218;9.884;2022-09-12T12:25:37;2.20;;;2.00;;
16878;SDS011;8556;52.218;9.884;2022-09-12T12:28:06;2.22;;;1.90;;
16878;SDS011;8556;52.218;9.884;2022-09-12T12:36:30;3.53;;;2.10;;
16878;SDS011;8556;52.218;9.884;2022-09-12T12:45:58;2.60;;;1.92;;
16878;SDS011;8556;52.218;9.884;2022-09-12T12:48:33;1.80;;;1.70;;
16878;SDS011;8556;52.218;9.884;2022-09-12T12:51:20;3.20;;;2.30;;
16878;SDS011;8556;52.218;9.884;2022-09-12T12:53:56;1.83;;;1.60;;
16878;SDS011;8556;52.218;9.884;2022-09-12T12:56:28;2.10;;;1.90;;
16878;SDS011;8556;52.218;9.884;2022-09-12T12:59:00;3.65;;;2.22;;
16878;SDS011;8556;52.218;9.884;2022-09-12T13:01:30;2.03;;;1.67;;
16878;SDS011;8556;52.218;9.884;2022-09-12T13:04:04;1.73;;;1.63;;
16878;SDS011;8556;52.218;9.884;2022-09-12T13:06:39;2.20;;;2.00;;
16878;SDS011;8556;52.218;9.884;2022-09-12T13:09:16;3.10;;;2.45;;
16878;SDS011;8556;52.218;9.884;2022-09-12T13:11:47;2.42;;;2.20;;
16878;SDS011;8556;52.218;9.884;2022-09-12T13:14:33;2.65;;;2.15;;
16878;SDS011;8556;52.218;9.884;2022-09-12T13:17:05;2.25;;;2.00;;
16878;SDS011;8556;52.218;9.884;2022-09-12T13:19:38;2.65;;;2.08;;
16878;SDS011;8556;52.218;9.884;2022-09-12T13:22:12;2.40;;;2.20;;
16878;SDS011;8556;52.218;9.884;2022-09-12T13:24:41;5.03;;;2.05;;
16878;SDS011;8556;52.218;9.884;2022-09-12T13:27:16;4.05;;;2.20;;
16878;SDS011;8556;52.218;9.884;2022-09-12T13:29:44;2.13;;;2.03;;
16878;SDS011;8556;52.218;9.884;2022-09-12T13:32:12;2.55;;;2.28;;
16878;SDS011;8556;52.218;9.884;2022-09-12T13:34:43;2.13;;;2.03;;
16878;SDS011;8556;52.218;9.884;2022-09-12T13:37:37;2.70;;;2.20;;
16878;SDS011;8556;52.218;9.884;2022-09-12T13:43:05;2.50;;;2.13;;
16878;SDS011;8556;52.218;9.884;2022-09-12T13:45:37;2.20;;;1.85;;
16878;SDS011;8556;52.218;9.884;2022-09-12T13:48:06;2.30;;;2.10;;
16878;SDS011;8556;52.218;9.884;2022-09-12T13:50:40;3.70;;;2.10;;
16878;SDS011;8556;52.218;9.884;2022-09-12T13:53:11;1.88;;;1.77;;
16878;SDS011;8556;52.218;9.884;2022-09-12T13:55:41;1.92;;;1.83;;
16878;SDS011;8556;52.218;9.884;2022-09-12T13:58:15;2.22;;;2.00;;
16878;SDS011;8556;52.218;9.884;2022-09-12T14:00:44;1.90;;;1.80;;
16878;SDS011;8556;52.218;9.884;2022-09-12T14:03:21;2.20;;;2.00;;
16878;SDS011;8556;52.218;9.884;2022-09-12T14:06:10;2.58;;;1.67;;
16878;SDS011;8556;52.218;9.884;2022-09-12T14:08:40;2.30;;;2.10;;
16878;SDS011;8556;52.218;9.884;2022-09-12T14:11:08;2.63;;;2.00;;
16878;SDS011;8556;52.218;9.884;2022-09-12T14:13:36;2.20;;;2.00;;
16878;SDS011;8556;52.218;9.884;2022-09-12T14:16:04;1.88;;;1.77;;
16878;SDS011;8556;52.218;9.884;2022-09-12T14:18:34;2.35;;;2.03;;
16878;SDS011;8556;52.218;9.884;2022-09-12T14:21:09;2.53;;;1.88;;
16878;SDS011;8556;52.218;9.884;2022-09-12T14:23:41;2.63;;;2.00;;
16878;SDS011;8556;52.218;9.884;2022-09-12T14:26:12;3.35;;;2.28;;
16878;SDS011;8556;52.218;9.884;2022-09-12T14:28:41;3.50;;;2.40;;
16878;SDS011;8556;52.218;9.884;2022-09-12T14:31:19;2.63;;;2.20;;
16878;SDS011;8556;52.218;9.884;2022-09-12T14:33:50;2.53;;;1.95;;
16878;SDS011;8556;52.218;9.884;2022-09-12T14:36:22;3.35;;;1.83;;
16878;SDS011;8556;52.218;9.884;2022-09-12T14:38:52;2.17;;;1.80;;
16878;SDS011;8556;52.218;9.884;2022-09-12T14:41:22;2.15;;;1.80;;
16878;SDS011;8556;52.218;9.884;2022-09-12T14:43:53;2.35;;;1.85;;
16878;SDS011;8556;52.218;9.884;2022-09-12T14:46:22;2.22;;;2.00;;
16878;SDS011;8556;52.218;9.884;2022-09-12T14:48:54;1.90;;;1.80;;
16878;SDS011;8556;52.218;9.884;2022-09-12T14:51:26;2.95;;;1.83;;
16878;SDS011;8556;52.218;9.884;2022-09-12T14:53:57;2.58;;;1.50;;
16878;SDS011;8556;52.218;9.884;2022-09-12T14:56:36;2.10;;;2.00;;
16878;SDS011;8556;52.218;9.884;2022-09-12T14:59:22;2.20;;;2.00;;
16878;SDS011;8556;52.218;9.884;2022-09-12T15:04:48;2.83;;;2.10;;
16878;SDS011;8556;52.218;9.884;2022-09-12T15:07:20;3.97;;;2.05;;
16878;SDS011;8556;52.218;9.884;2022-09-12T15:09:56;1.95;;;1.80;;
16878;SDS011;8556;52.218;9.884;2022-09-12T15:12:25;2.20;;;2.00;;
16878;SDS011;8556;52.218;9.884;2022-09-12T15:14:52;3.13;;;2.45;;
16878;SDS011;8556;52.218;9.884;2022-09-12T15:17:24;2.75;;;1.80;;
16878;SDS011;8556;52.218;9.884;2022-09-12T15:19:52;1.90;;;1.80;;
16878;SDS011;8556;52.218;9.884;2022-09-12T15:22:19;1.90;;;1.70;;
16878;SDS011;8556;52.218;9.884;2022-09-12T15:24:50;2.08;;;1.63;;
16878;SDS011;8556;52.218;9.884;2022-09-12T15:27:17;2.13;;;1.83;;
16878;SDS011;8556;52.218;9.884;2022-09-12T15:29:44;3.05;;;1.95;;
16878;SDS011;8556;52.218;9.884;2022-09-12T15:32:13;2.25;;;1.80;;
16878;SDS011;8556;52.218;9.884;2022-09-12T15:34:48;2.08;;;1.90;;
16878;SDS011;8556;52.218;9.884;2022-09-12T15:37:18;4.93;;;1.90;;
16878;SDS011;8556;52.218;9.884;2022-09-12T15:39:45;2.42;;;2.22;;
16878;SDS011;8556;52.218;9.884;2022-09-12T15:42:12;1.85;;;1.75;;
16878;SDS011;8556;52.218;9.884;2022-09-12T15:44:40;2.35;;;2.10;;